Hamilton, CO (81638)

3:45 PM MDT on July 25, 2014 (GMT -0600)
Craig-Moffat (KCAG) Elev 6191 ft | 40.49 °N, 107.52 °W | Change Station

Current weather conditions updated 52 minutes ago

Overcast
Overcast
80 °F
Feels Like 80 °F
N
16
Wind Variable Wind from SSW
Gusts 29 mph

Today is forecast to be Warmer than yesterday.

Today
High -- | Low -- °F
--% Chance of Precip.
Yesterday
High -- | Low -- °F
Precip. -- in
6:01 AM 8:31 PM
Waning Crescent, 1% visible
Pressure 29.93 in
Visibility 10.0 miles
Clouds Few 11000 ft
Dew Point 48 °F
Humidity 32%
Rainfall 0.07 in
Snow Depth Not available.
UV 10 out of 12
Pollen 5.90 out of 12
Air Quality Not available.
Flu Activity Not available.
METAR KCAG 252053Z AUTO 21014G25KT 10SM FEW110 27/09 A3015 RMK AO2 PK WND 20029/2018 WSHFT 2005 LTG DSNT E TSE04 SLP134 T02670089 56007

More Conditions Fewer Conditions

Pressure 29.93 in
Visibility 10.0 miles
Clouds Few 11000 ft
Dew Point 48 °F
Humidity 32%
Rainfall 0.07 in
Snow Depth Not available.
UV 10 out of 12
Pollen 5.90 out of 12
Air Quality Not available.
Flu Activity Not available.
METAR KCAG 252053Z AUTO 21014G25KT 10SM FEW110 27/09 A3015 RMK AO2 PK WND 20029/2018 WSHFT 2005 LTG DSNT E TSE04 SLP134 T02670089 56007

More Conditions Fewer Conditions

10-Day Weather Forecast

Almanac

Astronomy

Jul. 25, 2014 Rise Set
Actual Time 6:01 AM MDT 8:31 PM MDT
Civil Twilight 5:30 AM MDT 9:02 PM MDT
Nautical Twilight 4:51 AM MDT 9:41 PM MDT
Astronomical Twilight 4:08 AM MDT 10:24 PM MDT
Moon 5:03 AM MDT 7:30 PM MDT
Length of Visible Light 15h 32m
Length of Day
14h 30m
Tomorrow will be 1m 48s shorter.
Waning Crescent, 1% of the Moon is Illuminated
Today
Waning Crescent
Jul 26
New
Aug 3
First Quarter
Aug 10
Full
Aug 17
Last Quarter

Today's Extremes

State Highs State Lows

Community

WunderPhotos

Upload Photos

1,737,413 photos uploaded!

Nearby

Snow Depth

Station Depth Elevation
Lynx Pass 175 in 8880 ft
McClure Pass 20 in 9500 ft
Never Summer 0 in 10280 ft
Rawah 13 in 9020 ft
Overland Reservoir 0 in 9880 ft

Earthquake Activity

City Distance Mag. Time & Date
No recent earthquake activity has been reported nearby.
Minimum magnitude displayed is 2.5.

Coastal Water Temperatures

Place Temperature
No Stations Reporting

Nearby Weather Stations

Station Location Temp. Heat Index Dew Point Humidity Wind Precip. Elev Updated Type
MesoWest EMPIRE , Craig, CO 84 °F 81 °F - - North  at  - 0.00 in / hr 6159 ft 12:00 PM MDT MADIS
RAWS CRDBLMFTS CO, Hamilton, CO 73 °F 77 °F 50 °F 44% East  at  4 mph 0.00 in / hr 7633 ft 2:42 PM MDT MADIS
MesoWest DORSEY , Hayden, CO 80 °F 78 °F - - North  at  - 0.00 in / hr 6254 ft 2:45 PM MDT MADIS
MesoWest Lay Peak , Maybell, CO 84 °F 81 °F - - West  at  6 mph 0.00 in / hr 6430 ft 2:00 PM MDT MADIS
MesoWest DAWSON , Hayden, CO 80 °F 78 °F - - North  at  - 0.00 in / hr 6411 ft 12:20 PM MDT MADIS
RAWS DEAD HORSE CO, Hamilton, CO 70 °F - 43 °F 37% SW  at  9 mph 0.00 in / hr 8685 ft 2:57 PM MDT MADIS

Show More Stations Show Fewer Stations